Pagrindinis puslapis
METAR-TAF:

METAR-TAF

Oro uostai :

Hanojus, Vietnamas

platuma: 21-01N, ilguma: 105-48E, Aukštis: 6 m

Dabartinis oras

Ataskaita buvo paskelbta 34 minutes, ne 23:00 UTC
Vėjas 4 kt iš Rytų/Pietryčių
Temperatūra 21°C
Drėgmė 83%
Slėgis 1018 hPa
Matomumas: 5000 m
Su prošvaistėmis ne aukštis 2700 ft
rūkana

METAR: VVNB 142300Z 12004KT 5000 BR BKN027 21/18 Q1018 NOSIG

Laikas: 06:34 (23:34 UTC)

Prognozė

Ataskaita buvo paskelbta 2 valandos ir 34 minutes, ne 21:00 UTC
Prognozė galioja nuo 14 metu 21 UTC su 15 metu 18 UTC
Vėjas 5 kt iš Pietryčių
Matomumas: 4500 m
Išsisklaidę debesys ne aukštis 1700 ft
Su prošvaistėmis ne aukštis 5000 ft
rūkana
Laikinai
nuo 14 metu 23 UTC su 15 metu 01 UTC
Matomumas: 2000 m
rūkana
Tapsmas
nuo 15 metu 02 UTC su 15 metu 03 UTC
Matomumas: 7000 m

TAF: VVNB 142100Z 1421/1518 14005KT 4500 BR SCT017 BKN050 TEMPO 1423/1501 2000 BR BECMG 1502/1503 7000 NSW

Orai ataskaitas ir orų prognozės (METAR, TAF).

turimą stotys yra geltonos ir raudonos taškus žemėlapyje.

Perkelti pele per norėdami pamatyti stoties vardą.

Tada spustelėkite, norėdami matyti oro stebėjimo ir prognozės.

Norėdami pakeisti žemėlapį: spustelėkite ant žalios mygtukų su juodo kryžiaus žemyn,; žalią mygtuką su brūkšneliu, jei norite nutolinti; arba žalių rodyklių gretimoms žemėlapius.


METAR-TAF: